Time;durP1;ratioP1;P1;durP2;ratioP2;P2;SDS_P1;SDS_P2;PMS_P1;PMS_P2;Temp;Humidity;BMP_temperature;BMP_pressure;BME280_temperature;BME280_humidity;BME280_pressure;Samples;Min_cycle;Max_cycle;Signal;HPM_P1;HPM_P2
2022/05/27 00:01:42;;;;;;;7.43;3.20;;;19.90;99.90;;;;;;5050371;28;20201;-72
2022/05/27 00:04:09;;;;;;;13.43;3.20;;;19.90;99.90;;;;;;5068807;28;20182;-72
2022/05/27 00:06:36;;;;;;;11.97;3.00;;;19.90;99.90;;;;;;5072831;28;20194;-73
2022/05/27 00:09:02;;;;;;;10.47;3.57;;;19.90;99.90;;;;;;5063937;28;20255;-72
2022/05/27 00:11:29;;;;;;;12.53;3.53;;;19.90;99.90;;;;;;5045555;28;20981;-73
2022/05/27 00:13:55;;;;;;;9.23;3.60;;;19.90;99.90;;;;;;5074665;28;20205;-72
2022/05/27 00:16:22;;;;;;;12.53;3.57;;;19.90;99.90;;;;;;5071717;28;20989;-72
2022/05/27 00:18:48;;;;;;;15.17;3.60;;;19.90;99.90;;;;;;5054560;28;20210;-72
2022/05/27 00:21:15;;;;;;;11.50;3.30;;;19.90;99.90;;;;;;5073492;28;20852;-72
2022/05/27 00:23:43;;;;;;;12.87;3.30;;;20.00;99.90;;;;;;5040740;28;20186;-72
2022/05/27 00:26:09;;;;;;;9.30;3.30;;;20.00;99.90;;;;;;5067746;28;20269;-72
2022/05/27 00:28:36;;;;;;;6.43;2.80;;;20.00;99.90;;;;;;5063159;28;20610;-72
2022/05/27 00:31:04;;;;;;;8.93;3.30;;;20.00;99.90;;;;;;5060195;28;20291;-72
2022/05/27 00:33:33;;;;;;;9.37;3.20;;;20.00;99.90;;;;;;5046532;28;20195;-72
2022/05/27 00:36:00;;;;;;;14.60;3.70;;;20.00;99.90;;;;;;5049604;28;20215;-72
2022/05/27 00:38:26;;;;;;;12.67;3.50;;;20.00;99.90;;;;;;5069696;28;20202;-72
2022/05/27 00:40:53;;;;;;;9.83;3.57;;;19.90;99.90;;;;;;5079234;28;20199;-72
2022/05/27 00:43:23;;;;;;;9.60;3.10;;;19.90;99.90;;;;;;5061994;28;20386;-72
2022/05/27 00:46:11;;;;;;;10.60;3.50;;;19.80;99.90;;;;;;5063321;28;20531;-72
2022/05/27 00:48:41;;;;;;;11.93;3.30;;;19.90;99.90;;;;;;5066698;28;20588;-72
2022/05/27 00:51:29;;;;;;;7.53;3.03;;;19.90;99.90;;;;;;5067446;28;20199;-72
2022/05/27 00:54:09;;;;;;;8.93;3.00;;;19.90;99.90;;;;;;5049454;28;20209;-73
2022/05/27 00:56:41;;;;;;;10.57;3.70;;;19.90;99.90;;;;;;5052550;28;20215;-72
2022/05/27 00:59:24;;;;;;;11.47;3.13;;;19.90;99.90;;;;;;5066174;28;20225;-72
2022/05/27 01:01:51;;;;;;;5.43;3.10;;;19.80;99.90;;;;;;5067506;28;20186;-72
2022/05/27 01:04:19;;;;;;;11.17;3.40;;;19.80;99.90;;;;;;5068091;28;20188;-72
2022/05/27 01:06:45;;;;;;;8.17;3.70;;;19.80;99.90;;;;;;5048040;28;20224;-72
2022/05/27 01:09:14;;;;;;;7.77;3.10;;;19.80;99.90;;;;;;5050660;28;21022;-72
2022/05/27 01:12:26;;;;;;;13.40;3.80;;;19.80;99.90;;;;;;5060696;28;20626;-72
2022/05/27 01:15:27;;;;;;;9.50;3.50;;;19.80;99.90;;;;;;5058612;28;20202;-72
2022/05/27 01:21:49;;;;;;;15.43;3.83;;;19.60;99.90;;;;;;5048867;28;20659;-72
2022/05/27 01:25:06;;;;;;;8.13;3.43;;;19.60;99.90;;;;;;5062680;28;20218;-72
2022/05/27 01:28:22;;;;;;;8.03;2.90;;;19.60;99.90;;;;;;5072775;28;20236;-72
2022/05/27 01:31:10;;;;;;;11.57;3.30;;;19.60;99.90;;;;;;5041570;28;20219;-72
2022/05/27 01:33:50;;;;;;;9.73;3.40;;;19.60;99.90;;;;;;5082256;28;20187;-72
2022/05/27 01:37:10;;;;;;;10.33;3.50;;;19.60;99.90;;;;;;5050499;28;20207;-73
2022/05/27 01:39:45;;;;;;;9.60;3.33;;;19.60;99.90;;;;;;5067792;28;20264;-72
2022/05/27 01:42:37;;;;;;;11.20;3.93;;;19.60;99.90;;;;;;5048363;28;20236;-72
2022/05/27 01:45:56;;;;;;;8.17;3.13;;;19.50;99.90;;;;;;5066248;28;20195;-72
2022/05/27 01:48:45;;;;;;;10.13;3.47;;;19.50;99.90;;;;;;5061152;28;20309;-72
2022/05/27 01:51:19;;;;;;;10.73;2.90;;;19.50;99.90;;;;;;5046355;28;20187;-72
2022/05/27 01:54:03;;;;;;;10.60;3.30;;;19.50;99.90;;;;;;5061127;28;20269;-72
2022/05/27 01:56:47;;;;;;;11.30;3.30;;;19.40;99.90;;;;;;5069700;28;20219;-72
2022/05/27 01:59:23;;;;;;;8.47;3.27;;;19.40;99.90;;;;;;5062105;28;20187;-72
2022/05/27 02:02:04;;;;;;;6.23;3.20;;;19.40;99.90;;;;;;5064733;28;20179;-72
2022/05/27 02:04:45;;;;;;;9.50;3.13;;;19.30;99.90;;;;;;5061846;28;20179;-72
2022/05/27 02:07:35;;;;;;;6.70;3.40;;;19.30;99.90;;;;;;5071986;28;20191;-72
2022/05/27 02:10:11;;;;;;;9.13;3.37;;;19.30;99.90;;;;;;5057323;28;20645;-72
2022/05/27 02:13:07;;;;;;;12.13;3.63;;;19.30;99.90;;;;;;5076353;28;20201;-72
2022/05/27 02:15:45;;;;;;;7.67;3.20;;;19.40;99.90;;;;;;5068763;28;20761;-72
2022/05/27 02:18:26;;;;;;;9.13;3.27;;;19.40;99.90;;;;;;5070899;28;20191;-72
2022/05/27 02:21:02;;;;;;;12.13;3.50;;;19.40;99.90;;;;;;5038785;28;20762;-72
2022/05/27 02:23:37;;;;;;;8.67;3.47;;;19.40;99.90;;;;;;5082719;28;20205;-73
2022/05/27 02:26:14;;;;;;;6.70;3.13;;;19.40;99.90;;;;;;5074448;28;20205;-72
2022/05/27 02:28:49;;;;;;;6.93;2.90;;;19.40;99.90;;;;;;5079194;28;20182;-72
2022/05/27 02:31:25;;;;;;;8.80;3.37;;;19.40;99.90;;;;;;5070640;28;20586;-72
2022/05/27 02:37:24;;;;;;;7.90;2.90;;;19.40;99.90;;;;;;5069731;28;20727;-72
2022/05/27 02:39:50;;;;;;;7.87;2.73;;;19.40;99.90;;;;;;5081125;28;20612;-72
2022/05/27 02:43:32;;;;;;;9.60;3.30;;;19.40;99.90;;;;;;5081833;28;20216;-72
2022/05/27 02:46:07;;;;;;;6.07;2.83;;;19.40;99.90;;;;;;5040991;28;20646;-72
2022/05/27 02:49:05;;;;;;;6.00;2.80;;;19.50;99.90;;;;;;5076077;28;20688;-72
2022/05/27 02:52:09;;;;;;;7.57;2.90;;;19.50;99.90;;;;;;5065422;28;20571;-72
2022/05/27 02:54:48;;;;;;;14.73;3.33;;;19.50;99.90;;;;;;5041746;28;20660;-72
2022/05/27 02:57:27;;;;;;;7.47;2.93;;;19.50;99.90;;;;;;5055948;28;20682;-72
2022/05/27 02:59:56;;;;;;;8.13;2.83;;;19.50;99.90;;;;;;5053316;28;20197;-72
2022/05/27 03:02:22;;;;;;;12.27;3.00;;;19.50;99.90;;;;;;5077738;28;20244;-73
2022/05/27 03:04:56;;;;;;;7.70;2.80;;;19.50;99.90;;;;;;5080934;28;20217;-72
2022/05/27 03:07:51;;;;;;;8.27;3.10;;;19.50;99.90;;;;;;5080788;28;20301;-72
2022/05/27 03:11:04;;;;;;;10.43;3.10;;;19.50;99.90;;;;;;4984382;28;20233;-72
2022/05/27 03:14:22;;;;;;;8.17;3.40;;;19.50;99.90;;;;;;5080552;28;20201;-72
2022/05/27 03:17:19;;;;;;;8.87;2.70;;;19.50;99.90;;;;;;5076713;28;20225;-72
2022/05/27 03:20:30;;;;;;;10.80;3.40;;;19.50;99.90;;;;;;5065355;28;20295;-72
2022/05/27 03:23:06;;;;;;;10.43;3.17;;;19.50;99.90;;;;;;5070247;28;20281;-72
2022/05/27 03:25:46;;;;;;;10.27;3.17;;;19.50;99.90;;;;;;5068273;28;20195;-72
2022/05/27 03:28:31;;;;;;;9.57;3.40;;;19.50;99.90;;;;;;5072255;28;20194;-72
2022/05/27 03:31:23;;;;;;;14.57;3.33;;;19.50;99.90;;;;;;5069294;28;20217;-73
2022/05/27 03:34:21;;;;;;;6.53;2.80;;;19.50;99.90;;;;;;5042922;28;20187;-72
2022/05/27 03:37:06;;;;;;;9.47;3.47;;;19.50;99.90;;;;;;5072748;28;20218;-72
2022/05/27 03:39:59;;;;;;;10.70;3.57;;;19.50;99.90;;;;;;5071912;28;20224;-72
2022/05/27 03:42:29;;;;;;;11.07;3.63;;;19.50;99.90;;;;;;5068550;28;20190;-72
2022/05/27 03:45:21;;;;;;;9.47;3.33;;;19.60;99.90;;;;;;5076367;28;20979;-72
2022/05/27 03:47:48;;;;;;;9.80;3.13;;;19.60;99.90;;;;;;5071173;28;20195;-72
2022/05/27 03:50:23;;;;;;;9.87;3.20;;;19.60;99.90;;;;;;5072927;28;20187;-72
2022/05/27 03:52:54;;;;;;;7.27;2.80;;;19.60;99.90;;;;;;5078490;28;20222;-72
2022/05/27 03:55:26;;;;;;;8.63;3.30;;;19.60;99.90;;;;;;5050568;28;20191;-72
2022/05/27 03:57:53;;;;;;;10.40;3.43;;;19.60;99.90;;;;;;5067480;28;20191;-71
2022/05/27 04:00:21;;;;;;;8.93;3.57;;;19.60;99.90;;;;;;5072405;28;20190;-72
2022/05/27 04:02:47;;;;;;;7.70;3.20;;;19.50;99.90;;;;;;5057029;28;20186;-72
2022/05/27 04:05:18;;;;;;;8.10;2.97;;;19.50;99.90;;;;;;5049757;28;20191;-72
2022/05/27 04:07:46;;;;;;;7.80;3.00;;;19.50;99.90;;;;;;5059079;28;20183;-72
2022/05/27 04:10:12;;;;;;;9.10;3.23;;;19.50;99.90;;;;;;5051747;28;20191;-72
2022/05/27 04:12:39;;;;;;;7.80;2.97;;;19.50;99.90;;;;;;5049495;28;20719;-72
2022/05/27 04:15:07;;;;;;;5.73;3.13;;;19.50;99.90;;;;;;5072019;28;20198;-72
2022/05/27 04:17:34;;;;;;;6.00;3.17;;;19.50;99.90;;;;;;5068938;28;20218;-72
2022/05/27 04:20:09;;;;;;;7.93;3.03;;;19.60;99.90;;;;;;5067854;28;20222;-72
2022/05/27 04:22:36;;;;;;;13.73;3.70;;;19.60;99.90;;;;;;5065660;28;20281;-72
2022/05/27 04:25:05;;;;;;;10.40;3.23;;;19.70;99.90;;;;;;5083630;28;20547;-72
2022/05/27 04:27:32;;;;;;;8.63;3.17;;;19.70;99.90;;;;;;5065031;28;20210;-72
2022/05/27 04:29:58;;;;;;;9.97;3.07;;;19.80;99.90;;;;;;5068197;28;20185;-72
2022/05/27 04:32:26;;;;;;;11.37;3.10;;;19.90;99.90;;;;;;5066381;28;20234;-72
2022/05/27 04:34:54;;;;;;;6.00;3.00;;;20.00;99.90;;;;;;5045887;28;20685;-72
2022/05/27 04:37:23;;;;;;;8.27;3.03;;;20.10;99.90;;;;;;5067490;28;20259;-72
2022/05/27 04:39:49;;;;;;;11.33;3.10;;;20.10;99.90;;;;;;5050135;28;20664;-72
2022/05/27 04:42:18;;;;;;;7.03;3.00;;;20.20;99.90;;;;;;5072265;28;20274;-72
2022/05/27 04:44:44;;;;;;;7.90;3.10;;;20.30;99.90;;;;;;5064047;28;20191;-72
2022/05/27 04:47:11;;;;;;;7.77;3.33;;;20.40;99.90;;;;;;5068522;28;20263;-72
2022/05/27 04:49:51;;;;;;;9.87;3.33;;;20.40;99.90;;;;;;5051896;28;20239;-72
2022/05/27 04:52:19;;;;;;;7.57;3.40;;;20.40;99.90;;;;;;5062438;28;20272;-72
2022/05/27 04:54:46;;;;;;;12.33;3.33;;;20.50;99.90;;;;;;5051312;28;20236;-72
2022/05/27 04:57:34;;;;;;;8.70;3.30;;;20.50;99.90;;;;;;5060873;28;20280;-72
2022/05/27 05:00:07;;;;;;;8.00;3.17;;;20.60;99.90;;;;;;5066044;28;20186;-72
2022/05/27 05:02:34;;;;;;;6.60;3.30;;;20.60;99.90;;;;;;5069728;28;20201;-72
2022/05/27 05:05:00;;;;;;;6.77;2.80;;;20.60;99.90;;;;;;5050799;28;20226;-72
2022/05/27 05:07:27;;;;;;;8.17;2.97;;;20.60;99.90;;;;;;5074920;28;20221;-72
2022/05/27 05:09:53;;;;;;;9.77;3.50;;;20.70;99.90;;;;;;5061430;28;20597;-72
2022/05/27 05:12:22;;;;;;;7.47;3.20;;;20.80;99.90;;;;;;5074678;28;20581;-72
2022/05/27 05:14:53;;;;;;;10.57;3.30;;;20.90;99.90;;;;;;5050753;28;20598;-72
2022/05/27 05:17:21;;;;;;;10.07;3.13;;;20.90;99.90;;;;;;5059205;28;20230;-72
2022/05/27 05:19:48;;;;;;;6.57;3.60;;;21.00;99.90;;;;;;5073196;28;20217;-72
2022/05/27 05:22:15;;;;;;;12.23;3.60;;;21.00;99.90;;;;;;5070227;28;20195;-72
2022/05/27 05:24:41;;;;;;;7.50;3.00;;;21.10;99.90;;;;;;5065194;28;20225;-72
2022/05/27 05:27:08;;;;;;;12.80;3.50;;;21.10;99.90;;;;;;5063667;28;20513;-72
2022/05/27 05:29:35;;;;;;;10.17;3.17;;;21.20;99.90;;;;;;5047284;28;20290;-72
2022/05/27 05:32:01;;;;;;;10.83;4.07;;;21.20;99.90;;;;;;5069579;28;20214;-72
2022/05/27 05:34:29;;;;;;;13.70;3.23;;;21.30;99.90;;;;;;5054831;28;20647;-72
2022/05/27 05:36:56;;;;;;;10.53;3.90;;;21.30;99.90;;;;;;5061289;28;20210;-72
2022/05/27 05:39:23;;;;;;;10.70;3.13;;;21.50;99.90;;;;;;5060546;28;20193;-72
2022/05/27 05:42:03;;;;;;;7.83;3.50;;;21.60;99.90;;;;;;5062739;28;20257;-72
2022/05/27 05:44:32;;;;;;;6.40;3.40;;;21.60;99.90;;;;;;5056345;28;20775;-72
2022/05/27 05:46:58;;;;;;;10.37;3.23;;;21.60;99.90;;;;;;5071273;28;20199;-72
2022/05/27 05:49:25;;;;;;;8.47;3.27;;;21.60;99.90;;;;;;5062148;28;20197;-72
2022/05/27 05:51:54;;;;;;;6.43;3.27;;;21.70;99.90;;;;;;5087407;28;20320;-72
2022/05/27 05:54:22;;;;;;;9.40;3.37;;;21.70;99.90;;;;;;5064161;28;20256;-72
2022/05/27 05:56:50;;;;;;;8.70;3.47;;;21.80;99.90;;;;;;5056306;28;20563;-72
2022/05/27 05:59:24;;;;;;;12.93;3.27;;;21.80;99.90;;;;;;5076774;28;20320;-72
2022/05/27 06:01:50;;;;;;;7.87;3.33;;;21.90;99.90;;;;;;5070701;28;20186;-73
2022/05/27 06:04:17;;;;;;;9.23;3.50;;;22.00;99.90;;;;;;5052072;28;20274;-72
2022/05/27 06:06:43;;;;;;;7.05;3.15;;;22.00;99.90;;;;;;5050078;28;20195;-72
2022/05/27 06:09:09;;;;;;;11.33;3.33;;;22.10;99.90;;;;;;5063051;28;20198;-72
2022/05/27 06:11:38;;;;;;;10.17;3.33;;;22.20;99.90;;;;;;5064405;28;20283;-72
2022/05/27 06:14:06;;;;;;;5.60;3.00;;;22.30;99.90;;;;;;5065394;28;20186;-72
2022/05/27 06:16:33;;;;;;;9.80;3.30;;;22.40;99.90;;;;;;5053278;28;20620;-72
2022/05/27 06:19:00;;;;;;;7.15;3.30;;;22.50;99.90;;;;;;5046774;28;20212;-72
2022/05/27 06:21:28;;;;;;;9.63;3.23;;;22.80;99.90;;;;;;5062158;28;20240;-72
2022/05/27 06:23:57;;;;;;;10.60;3.50;;;22.90;99.90;;;;;;5062828;28;20199;-72
2022/05/27 06:26:23;;;;;;;9.27;2.80;;;23.10;99.90;;;;;;5047382;28;20187;-72
2022/05/27 06:34:25;;;;;;;8.67;3.70;;;23.70;99.90;;;;;;5069066;28;20190;-72
2022/05/27 06:37:07;;;;;;;6.53;2.90;;;23.70;99.90;;;;;;5063776;28;20221;-72
2022/05/27 06:39:37;;;;;;;11.20;3.65;;;23.80;99.90;;;;;;5074562;28;20295;-72
2022/05/27 06:42:11;;;;;;;7.40;2.80;;;24.00;99.90;;;;;;5071946;28;20665;-72
2022/05/27 06:44:37;;;;;;;10.13;3.38;;;24.20;99.90;;;;;;5079962;28;20209;-72
2022/05/27 06:47:05;;;;;;;8.93;3.33;;;24.20;99.90;;;;;;5065026;28;20282;-72
2022/05/27 06:49:37;;;;;;;7.88;2.90;;;24.20;99.90;;;;;;5064452;28;20199;-72
2022/05/27 06:52:06;;;;;;;9.13;3.03;;;24.20;99.90;;;;;;5067376;28;20199;-72
2022/05/27 06:54:34;;;;;;;6.93;3.00;;;24.30;99.90;;;;;;5047048;28;20235;-72
2022/05/27 06:57:01;;;;;;;8.32;2.80;;;24.40;99.90;;;;;;5061864;28;20216;-72
2022/05/27 06:59:27;;;;;;;9.93;3.17;;;24.50;99.90;;;;;;5061419;28;20187;-72
2022/05/27 07:01:56;;;;;;;12.18;3.10;;;24.70;99.90;;;;;;5059150;28;20186;-72
2022/05/27 07:04:22;;;;;;;6.20;2.80;;;24.80;99.90;;;;;;5066843;28;20191;-72
2022/05/27 07:06:49;;;;;;;9.00;2.88;;;24.90;99.90;;;;;;5048269;28;20663;-72
2022/05/27 07:09:22;;;;;;;8.32;3.03;;;24.90;99.90;;;;;;5060919;28;20188;-72
2022/05/27 07:11:53;;;;;;;12.32;3.38;;;24.90;99.90;;;;;;5060527;28;20718;-72
2022/05/27 07:14:20;;;;;;;8.93;3.13;;;25.00;99.90;;;;;;5043059;28;20187;-72
2022/05/27 07:16:51;;;;;;;5.72;2.95;;;25.20;99.90;;;;;;5064938;28;20630;-72
2022/05/27 07:19:19;;;;;;;11.27;2.97;;;25.30;99.90;;;;;;5064165;28;20184;-72
2022/05/27 07:21:48;;;;;;;10.13;2.80;;;25.30;99.90;;;;;;5044538;28;20187;-71
2022/05/27 07:24:18;;;;;;;9.40;3.38;;;25.40;99.90;;;;;;5066349;28;20206;-72
2022/05/27 07:26:46;;;;;;;8.35;3.10;;;25.50;99.90;;;;;;5041842;28;20206;-72
2022/05/27 07:29:14;;;;;;;9.88;3.20;;;25.40;99.90;;;;;;5074085;28;20202;-72
2022/05/27 07:31:43;;;;;;;12.73;2.88;;;25.40;99.90;;;;;;5065770;28;20217;-72
2022/05/27 07:34:10;;;;;;;7.82;2.90;;;25.60;99.90;;;;;;5060867;28;20183;-72
2022/05/27 07:36:37;;;;;;;9.63;3.50;;;25.90;99.90;;;;;;5058810;28;20218;-72
2022/05/27 07:39:04;;;;;;;11.23;2.95;;;26.10;99.90;;;;;;5058321;28;20668;-72
2022/05/27 07:41:32;;;;;;;8.65;2.88;;;26.10;99.90;;;;;;5044137;28;20350;-72
2022/05/27 07:44:01;;;;;;;11.77;3.40;;;26.20;99.90;;;;;;5057673;28;20690;-72
2022/05/27 07:46:31;;;;;;;8.48;3.63;;;26.50;99.90;;;;;;5051131;28;20290;-72
2022/05/27 07:49:00;;;;;;;8.73;3.13;;;26.60;99.90;;;;;;5066721;28;20197;-72
2022/05/27 07:51:27;;;;;;;12.90;3.20;;;26.80;99.90;;;;;;5049905;28;20245;-72
2022/05/27 07:53:54;;;;;;;13.85;3.72;;;26.80;99.90;;;;;;5033402;28;20837;-72
2022/05/27 07:56:20;;;;;;;12.48;3.58;;;26.80;99.90;;;;;;5048192;28;20239;-73
2022/05/27 07:58:47;;;;;;;6.70;3.40;;;26.90;99.90;;;;;;5052552;28;20973;-73
2022/05/27 08:01:14;;;;;;;16.35;4.10;;;27.00;99.90;;;;;;5079897;28;20201;-73
2022/05/27 08:03:42;;;;;;;8.82;3.20;;;27.00;99.90;;;;;;5079069;28;20199;-73
2022/05/27 08:06:11;;;;;;;8.45;3.42;;;27.10;99.90;;;;;;5029625;28;20187;-73
2022/05/27 08:08:39;;;;;;;8.10;3.35;;;27.10;99.90;;;;;;5048252;28;20708;-73
2022/05/27 08:11:07;;;;;;;10.18;3.20;;;27.20;99.90;;;;;;5060415;28;20190;-73
2022/05/27 08:13:34;;;;;;;14.23;3.20;;;27.30;99.90;;;;;;5065824;28;20235;-73
2022/05/27 08:16:01;;;;;;;9.80;3.60;;;27.50;99.90;;;;;;5057501;28;20212;-73
2022/05/27 08:18:27;;;;;;;14.75;3.97;;;27.60;99.90;;;;;;5059537;28;20655;-73
2022/05/27 08:20:54;;;;;;;10.20;3.65;;;27.60;99.90;;;;;;5063731;28;20205;-73
2022/05/27 08:23:20;;;;;;;7.07;3.40;;;27.70;99.90;;;;;;5058113;28;20707;-73
2022/05/27 08:25:47;;;;;;;9.07;3.35;;;27.80;99.90;;;;;;5064647;28;20293;-73
2022/05/27 08:28:14;;;;;;;14.63;3.55;;;27.90;99.90;;;;;;5029992;28;20261;-73
2022/05/27 08:30:41;;;;;;;8.70;3.22;;;28.00;99.90;;;;;;5078198;28;20214;-73
2022/05/27 08:33:08;;;;;;;6.93;3.38;;;28.00;99.90;;;;;;5069333;28;20190;-73
2022/05/27 08:38:31;;;;;;;12.13;3.08;;;28.10;99.90;;;;;;5063306;28;20186;-73
2022/05/27 08:41:17;;;;;;;8.68;2.83;;;28.10;99.90;;;;;;5062383;28;20229;-72
2022/05/27 08:44:26;;;;;;;10.88;3.00;;;28.20;99.90;;;;;;5056663;28;20198;-72
2022/05/27 08:47:12;;;;;;;8.60;3.17;;;28.30;99.90;;;;;;5050401;28;20828;-72
2022/05/27 08:49:45;;;;;;;10.10;3.17;;;28.40;99.90;;;;;;5060394;28;20281;-72
2022/05/27 08:52:37;;;;;;;11.73;3.42;;;28.30;99.90;;;;;;5042619;28;21007;-72
2022/05/27 09:01:20;;;;;;;11.13;3.42;;;28.80;99.90;;;;;;5066357;28;20186;-72
2022/05/27 09:04:21;;;;;;;13.45;3.40;;;28.80;99.90;;;;;;5053262;28;20285;-73
2022/05/27 09:06:57;;;;;;;13.15;3.30;;;28.90;99.90;;;;;;5076661;28;20183;-72
2022/05/27 09:09:29;;;;;;;8.25;2.92;;;29.00;99.90;;;;;;5067031;28;20182;-72
2022/05/27 09:12:31;;;;;;;8.95;3.17;;;29.00;99.90;;;;;;5084180;28;20543;-72
2022/05/27 09:15:01;;;;;;;8.48;3.00;;;29.10;99.90;;;;;;5060708;28;20635;-72
2022/05/27 09:18:04;;;;;;;16.45;3.55;;;29.20;99.90;;;;;;5059534;28;20528;-72
2022/05/27 09:20:54;;;;;;;10.80;3.15;;;29.20;99.90;;;;;;5067655;28;20203;-72
2022/05/27 09:24:08;;;;;;;9.13;3.40;;;29.20;99.90;;;;;;5078181;28;20935;-72
2022/05/27 09:26:48;;;;;;;6.55;3.40;;;29.20;99.90;;;;;;5040521;28;20194;-72
2022/05/27 09:30:02;;;;;;;7.63;2.72;;;29.30;99.90;;;;;;5068618;28;20539;-72
2022/05/27 09:32:54;;;;;;;10.13;3.13;;;29.30;99.90;;;;;;5062423;28;20214;-72
2022/05/27 09:35:48;;;;;;;8.50;2.90;;;29.30;99.90;;;;;;5067970;28;20178;-72
2022/05/27 09:38:20;;;;;;;8.85;3.03;;;29.30;99.90;;;;;;5072839;28;20558;-73
2022/05/27 09:41:23;;;;;;;11.15;2.97;;;29.50;99.90;;;;;;5078167;28;20187;-73
2022/05/27 09:44:18;;;;;;;12.57;3.17;;;29.40;99.90;;;;;;5062324;28;21093;-73
2022/05/27 09:46:45;;;;;;;7.07;2.92;;;29.40;99.90;;;;;;5066565;28;20676;-72
2022/05/27 09:49:11;;;;;;;9.10;3.10;;;29.50;99.90;;;;;;5077340;28;20186;-73
2022/05/27 09:51:38;;;;;;;10.65;3.83;;;29.50;99.90;;;;;;5049465;28;20219;-72
2022/05/27 09:54:49;;;;;;;13.50;3.00;;;29.50;99.90;;;;;;5052726;28;20530;-73
2022/05/27 09:57:26;;;;;;;9.70;2.92;;;29.50;99.60;;;;;;5037485;28;20835;-72
2022/05/27 10:00:04;;;;;;;8.85;3.13;;;29.70;99.70;;;;;;5064640;28;20186;-72
2022/05/27 10:02:37;;;;;;;15.20;3.15;;;29.70;98.90;;;;;;5049710;28;20664;-72
2022/05/27 10:05:24;;;;;;;11.85;3.22;;;29.70;99.90;;;;;;5062860;28;20275;-72
2022/05/27 10:07:57;;;;;;;17.83;3.55;;;29.80;99.80;;;;;;5067823;28;20217;-72
2022/05/27 10:10:41;;;;;;;8.82;3.30;;;29.80;99.20;;;;;;5070986;28;20274;-72
2022/05/27 10:13:36;;;;;;;10.50;2.97;;;29.90;98.90;;;;;;5075284;28;20186;-72
2022/05/27 10:16:10;;;;;;;9.90;3.05;;;29.90;98.60;;;;;;5065054;28;20229;-72
2022/05/27 10:18:39;;;;;;;13.10;3.45;;;30.00;98.30;;;;;;5066817;28;20191;-72
2022/05/27 10:21:16;;;;;;;10.43;2.90;;;30.00;98.60;;;;;;5066708;28;20191;-72
2022/05/27 10:23:50;;;;;;;9.00;3.00;;;30.10;98.60;;;;;;5052085;28;20262;-72
2022/05/27 10:26:29;;;;;;;6.97;3.40;;;30.20;98.00;;;;;;5061506;28;20182;-72
2022/05/27 10:29:17;;;;;;;9.82;3.17;;;30.20;97.20;;;;;;5066586;28;20197;-72
2022/05/27 10:31:53;;;;;;;10.82;3.42;;;30.10;97.50;;;;;;5070540;28;20258;-73
2022/05/27 10:34:45;;;;;;;9.38;3.10;;;30.00;97.20;;;;;;5068321;28;20716;-73
2022/05/27 10:37:47;;;;;;;13.52;3.38;;;30.00;97.20;;;;;;5069666;28;20217;-72
2022/05/27 10:40:36;;;;;;;11.63;3.25;;;30.10;97.70;;;;;;5010891;28;20210;-73
2022/05/27 10:43:35;;;;;;;16.63;3.22;;;30.10;97.20;;;;;;5067292;28;20267;-72
2022/05/27 10:46:09;;;;;;;8.00;2.80;;;30.10;97.20;;;;;;5050549;28;20240;-73
2022/05/27 10:49:13;;;;;;;9.02;3.17;;;30.10;97.30;;;;;;5064320;28;20186;-73
2022/05/27 10:51:53;;;;;;;14.10;3.05;;;30.10;97.30;;;;;;5046846;28;20276;-73
2022/05/27 10:54:38;;;;;;;7.32;3.30;;;30.00;97.30;;;;;;5074135;28;20269;-73
2022/05/27 11:03:25;;;;;;;8.27;3.13;;;29.90;98.30;;;;;;5072679;28;20667;-73
2022/05/27 11:06:30;;;;;;;11.65;3.30;;;29.80;97.20;;;;;;5071212;28;20297;-73
2022/05/27 11:09:15;;;;;;;7.13;2.92;;;29.90;97.40;;;;;;5056104;28;20194;-72
2022/05/27 11:15:10;;;;;;;7.93;3.00;;;29.90;96.70;;;;;;5065006;28;20194;-73
2022/05/27 11:15:48;;;;;;;6.85;3.38;;;29.80;96.20;;;;;;5022063;28;20244;-73
2022/05/27 11:18:29;;;;;;;10.02;2.78;;;29.80;96.90;;;;;;5059122;28;20211;-73
2022/05/27 11:21:39;;;;;;;6.30;2.78;;;29.80;97.30;;;;;;5066450;28;20198;-72
2022/05/27 11:24:14;;;;;;;11.40;3.05;;;29.80;97.00;;;;;;5051979;28;20219;-73
2022/05/27 11:27:08;;;;;;;13.82;3.22;;;30.00;97.10;;;;;;5049519;28;20186;-73
2022/05/27 11:30:19;;;;;;;5.82;2.80;;;30.00;96.50;;;;;;5047040;28;20190;-73
2022/05/27 11:33:16;;;;;;;8.23;3.08;;;30.10;96.50;;;;;;5042955;28;20218;-72
2022/05/27 11:35:58;;;;;;;12.35;3.13;;;30.10;96.00;;;;;;5040416;28;20717;-73
2022/05/27 11:38:54;;;;;;;9.60;2.90;;;30.10;96.20;;;;;;5039321;28;20183;-73
2022/05/27 11:41:49;;;;;;;8.63;3.20;;;30.00;97.00;;;;;;5071596;28;20205;-73
2022/05/27 11:44:39;;;;;;;9.20;3.17;;;30.10;96.70;;;;;;5035693;28;20189;-73
2022/05/27 11:47:35;;;;;;;7.65;2.72;;;30.10;96.60;;;;;;5040433;28;20281;-73
2022/05/27 11:50:23;;;;;;;14.95;3.00;;;30.10;96.50;;;;;;5032208;28;20198;-73
2022/05/27 11:52:58;;;;;;;7.05;2.80;;;30.20;95.90;;;;;;5060090;28;20189;-73
2022/05/27 11:55:48;;;;;;;7.90;3.50;;;30.20;96.00;;;;;;5054930;28;20194;-73
2022/05/27 11:58:44;;;;;;;6.88;3.10;;;30.10;96.40;;;;;;5069555;28;20191;-73
2022/05/27 12:01:43;;;;;;;5.80;2.58;;;30.20;96.70;;;;;;5059067;28;20179;-73
2022/05/27 12:04:39;;;;;;;8.02;2.92;;;30.20;96.40;;;;;;5068316;28;20178;-73
2022/05/27 12:07:51;;;;;;;9.55;3.10;;;30.20;96.10;;;;;;5067155;28;20548;-73
2022/05/27 12:23:55;;;;;;;6.22;3.17;;;30.10;96.40;;;;;;5116140;27;20588;-73
2022/05/27 12:26:33;;;;;;;10.65;3.38;;;30.10;97.70;;;;;;5089206;27;20178;-75
2022/05/27 12:29:07;;;;;;;11.88;3.10;;;30.20;97.30;;;;;;5073783;28;20193;-73
2022/05/27 12:31:35;;;;;;;9.98;3.17;;;30.20;97.30;;;;;;5105500;28;20760;-73
2022/05/27 12:34:27;;;;;;;8.60;2.72;;;30.10;97.00;;;;;;5094667;28;20262;-75
2022/05/27 12:37:12;;;;;;;12.98;3.40;;;30.10;97.90;;;;;;5070012;28;20200;-73
2022/05/27 12:39:41;;;;;;;8.43;3.13;;;30.10;97.40;;;;;;5086954;28;20223;-73
2022/05/27 12:42:18;;;;;;;10.07;3.30;;;30.00;97.40;;;;;;5086849;28;20641;-75
2022/05/27 12:44:47;;;;;;;9.57;2.80;;;29.90;97.60;;;;;;5071407;28;20276;-73
2022/05/27 12:47:34;;;;;;;9.40;2.95;;;30.10;97.50;;;;;;5108419;27;20216;-75
2022/05/27 12:50:25;;;;;;;6.18;2.88;;;30.00;97.60;;;;;;5075533;28;20864;-71
2022/05/27 12:52:57;;;;;;;13.13;2.53;;;29.90;97.10;;;;;;5098457;28;20229;-72
2022/05/27 13:01:43;;;;;;;9.70;3.20;;;29.70;97.60;;;;;;5115033;27;20234;-75
2022/05/27 13:04:53;;;;;;;7.20;3.13;;;29.90;97.40;;;;;;5099198;28;20341;-74
2022/05/27 13:07:48;;;;;;;7.97;3.25;;;29.90;97.30;;;;;;5071658;28;20279;-72
2022/05/27 13:10:18;;;;;;;4.50;2.83;;;29.90;96.90;;;;;;5092673;28;20266;-73
2022/05/27 13:12:56;;;;;;;8.75;3.00;;;30.10;96.90;;;;;;5072824;28;21084;-74
2022/05/27 13:15:55;;;;;;;11.27;3.25;;;30.00;96.40;;;;;;5108712;27;20272;-73
2022/05/27 13:18:30;;;;;;;9.32;3.20;;;30.00;97.00;;;;;;5059943;28;20281;-72
2022/05/27 13:21:12;;;;;;;8.75;2.72;;;29.90;96.30;;;;;;5078157;28;20192;-72
2022/05/27 13:24:01;;;;;;;11.27;2.65;;;29.80;96.30;;;;;;5057675;28;20197;-74
2022/05/27 13:26:33;;;;;;;15.25;3.08;;;29.90;96.50;;;;;;5066909;28;20190;-72
2022/05/27 13:29:00;;;;;;;10.65;3.10;;;29.90;96.50;;;;;;5055529;28;20201;-73
2022/05/27 13:31:44;;;;;;;5.70;2.75;;;30.00;96.20;;;;;;5086262;28;20225;-72
2022/05/27 13:34:42;;;;;;;8.05;3.00;;;29.90;96.60;;;;;;5069429;28;20182;-73
2022/05/27 13:37:45;;;;;;;10.20;2.63;;;29.80;96.60;;;;;;5070311;28;20194;-73
2022/05/27 13:40:30;;;;;;;10.60;2.90;;;29.80;95.20;;;;;;5065500;28;20185;-73
2022/05/27 13:43:35;;;;;;;7.40;2.60;;;29.80;96.00;;;;;;5095670;28;20689;-73
2022/05/27 13:46:02;;;;;;;5.38;2.80;;;29.70;95.70;;;;;;5052276;28;20679;-76
2022/05/27 13:48:50;;;;;;;7.53;3.15;;;29.70;96.00;;;;;;5074830;28;20182;-73
2022/05/27 13:51:22;;;;;;;9.05;3.10;;;29.70;96.50;;;;;;5079863;28;20234;-74
2022/05/27 13:53:54;;;;;;;10.02;2.90;;;29.70;96.40;;;;;;5068572;28;20171;-76
2022/05/27 13:56:42;;;;;;;12.18;3.35;;;29.70;96.40;;;;;;5080106;28;20785;-76
2022/05/27 13:59:30;;;;;;;9.40;3.03;;;29.70;96.80;;;;;;5093742;28;20186;-74
2022/05/27 14:02:02;;;;;;;7.60;2.65;;;29.60;96.90;;;;;;5085518;28;20186;-73
2022/05/27 14:04:45;;;;;;;8.45;3.35;;;29.60;96.00;;;;;;5089603;28;20197;-73
2022/05/27 14:07:32;;;;;;;9.43;2.65;;;29.50;95.60;;;;;;5072997;28;20269;-76
2022/05/27 14:10:20;;;;;;;7.05;2.90;;;29.40;95.60;;;;;;5036124;28;20196;-74
2022/05/27 14:12:50;;;;;;;8.43;2.92;;;29.40;96.20;;;;;;5069695;28;20448;-73
2022/05/27 14:15:28;;;;;;;7.22;2.80;;;29.30;94.70;;;;;;5045428;28;20187;-74
2022/05/27 14:17:57;;;;;;;5.35;2.47;;;29.20;95.80;;;;;;5072086;28;20232;-76
2022/05/27 14:23:26;;;;;;;5.28;2.67;;;29.20;95.70;;;;;;5063578;28;20232;-73
2022/05/27 14:26:05;;;;;;;10.55;2.78;;;29.20;95.50;;;;;;5070123;28;20196;-72
2022/05/27 14:28:54;;;;;;;14.93;3.30;;;29.10;95.40;;;;;;5066027;28;20580;-73
2022/05/27 14:31:31;;;;;;;6.57;3.05;;;29.00;95.80;;;;;;5062461;28;20212;-74